sensor_id;sensor_type;location;lat;lon;timestamp;P1;durP1;ratioP1;P2;durP2;ratioP2
69008;SDS011;56065;52.472;13.380;2022-12-18T00:01:24;38.10;;;11.52;;
69008;SDS011;56065;52.472;13.380;2022-12-18T00:03:51;40.65;;;11.35;;
69008;SDS011;56065;52.472;13.380;2022-12-18T00:06:18;37.53;;;9.35;;
69008;SDS011;56065;52.472;13.380;2022-12-18T00:08:44;34.38;;;10.88;;
69008;SDS011;56065;52.472;13.380;2022-12-18T00:11:11;35.80;;;9.85;;
69008;SDS011;56065;52.472;13.380;2022-12-18T00:13:38;35.80;;;10.98;;
69008;SDS011;56065;52.472;13.380;2022-12-18T00:16:04;34.67;;;9.97;;
69008;SDS011;56065;52.472;13.380;2022-12-18T00:18:32;42.03;;;11.25;;
69008;SDS011;56065;52.472;13.380;2022-12-18T00:20:58;34.77;;;9.90;;
69008;SDS011;56065;52.472;13.380;2022-12-18T00:23:25;36.75;;;10.73;;
69008;SDS011;56065;52.472;13.380;2022-12-18T00:25:51;33.90;;;10.48;;
69008;SDS011;56065;52.472;13.380;2022-12-18T00:28:17;34.73;;;10.47;;
69008;SDS011;56065;52.472;13.380;2022-12-18T00:30:42;31.77;;;10.20;;
69008;SDS011;56065;52.472;13.380;2022-12-18T00:33:07;32.83;;;9.30;;
69008;SDS011;56065;52.472;13.380;2022-12-18T00:35:33;31.40;;;9.63;;
69008;SDS011;56065;52.472;13.380;2022-12-18T00:37:58;33.30;;;9.77;;
69008;SDS011;56065;52.472;13.380;2022-12-18T00:40:23;37.40;;;10.00;;
69008;SDS011;56065;52.472;13.380;2022-12-18T00:42:49;35.80;;;10.00;;
69008;SDS011;56065;52.472;13.380;2022-12-18T00:45:20;36.53;;;9.53;;
69008;SDS011;56065;52.472;13.380;2022-12-18T00:47:48;35.00;;;9.60;;
69008;SDS011;56065;52.472;13.380;2022-12-18T00:50:14;44.25;;;12.35;;
69008;SDS011;56065;52.472;13.380;2022-12-18T00:52:40;33.23;;;10.23;;
69008;SDS011;56065;52.472;13.380;2022-12-18T00:55:05;33.40;;;9.33;;
69008;SDS011;56065;52.472;13.380;2022-12-18T00:57:31;42.00;;;11.50;;
69008;SDS011;56065;52.472;13.380;2022-12-18T00:59:56;39.97;;;11.33;;
69008;SDS011;56065;52.472;13.380;2022-12-18T01:02:22;39.58;;;10.05;;
69008;SDS011;56065;52.472;13.380;2022-12-18T01:04:47;38.53;;;11.23;;
69008;SDS011;56065;52.472;13.380;2022-12-18T01:07:13;32.60;;;10.07;;
69008;SDS011;56065;52.472;13.380;2022-12-18T01:09:38;38.03;;;10.40;;
69008;SDS011;56065;52.472;13.380;2022-12-18T01:12:04;36.47;;;10.80;;
69008;SDS011;56065;52.472;13.380;2022-12-18T01:14:29;43.50;;;10.75;;
69008;SDS011;56065;52.472;13.380;2022-12-18T01:16:55;35.47;;;11.43;;
69008;SDS011;56065;52.472;13.380;2022-12-18T01:19:20;41.53;;;11.63;;
69008;SDS011;56065;52.472;13.380;2022-12-18T01:21:45;41.37;;;10.03;;
69008;SDS011;56065;52.472;13.380;2022-12-18T01:24:11;44.60;;;10.83;;
69008;SDS011;56065;52.472;13.380;2022-12-18T01:26:37;41.60;;;10.50;;
69008;SDS011;56065;52.472;13.380;2022-12-18T01:29:02;36.30;;;11.00;;
69008;SDS011;56065;52.472;13.380;2022-12-18T01:31:28;40.10;;;10.30;;
69008;SDS011;56065;52.472;13.380;2022-12-18T01:33:56;42.97;;;11.98;;
69008;SDS011;56065;52.472;13.380;2022-12-18T01:36:22;41.20;;;12.00;;
69008;SDS011;56065;52.472;13.380;2022-12-18T01:38:53;39.67;;;11.67;;
69008;SDS011;56065;52.472;13.380;2022-12-18T01:41:20;44.28;;;10.57;;
69008;SDS011;56065;52.472;13.380;2022-12-18T01:43:57;38.88;;;11.55;;
69008;SDS011;56065;52.472;13.380;2022-12-18T01:46:23;45.20;;;12.38;;
69008;SDS011;56065;52.472;13.380;2022-12-18T01:49:08;35.78;;;9.98;;
69008;SDS011;56065;52.472;13.380;2022-12-18T01:51:33;37.77;;;10.80;;
69008;SDS011;56065;52.472;13.380;2022-12-18T01:53:58;37.40;;;10.32;;
69008;SDS011;56065;52.472;13.380;2022-12-18T01:56:24;41.10;;;11.05;;
69008;SDS011;56065;52.472;13.380;2022-12-18T01:58:54;40.43;;;10.53;;
69008;SDS011;56065;52.472;13.380;2022-12-18T02:01:24;38.08;;;10.73;;
69008;SDS011;56065;52.472;13.380;2022-12-18T02:03:50;41.53;;;9.50;;
69008;SDS011;56065;52.472;13.380;2022-12-18T02:06:21;40.28;;;11.43;;
69008;SDS011;56065;52.472;13.380;2022-12-18T02:09:11;38.47;;;10.43;;
69008;SDS011;56065;52.472;13.380;2022-12-18T02:11:49;38.08;;;10.55;;
69008;SDS011;56065;52.472;13.380;2022-12-18T02:17:27;42.08;;;11.80;;
69008;SDS011;56065;52.472;13.380;2022-12-18T02:19:57;37.45;;;10.23;;
69008;SDS011;56065;52.472;13.380;2022-12-18T02:22:53;39.65;;;10.30;;
69008;SDS011;56065;52.472;13.380;2022-12-18T02:28:23;33.85;;;8.95;;
69008;SDS011;56065;52.472;13.380;2022-12-18T02:30:53;42.28;;;11.07;;
69008;SDS011;56065;52.472;13.380;2022-12-18T02:33:22;43.42;;;11.02;;
69008;SDS011;56065;52.472;13.380;2022-12-18T02:35:50;43.95;;;11.43;;
69008;SDS011;56065;52.472;13.380;2022-12-18T02:38:18;35.97;;;10.23;;
69008;SDS011;56065;52.472;13.380;2022-12-18T02:40:43;39.47;;;11.63;;
69008;SDS011;56065;52.472;13.380;2022-12-18T02:43:13;42.05;;;11.95;;
69008;SDS011;56065;52.472;13.380;2022-12-18T02:45:57;38.17;;;11.95;;
69008;SDS011;56065;52.472;13.380;2022-12-18T02:48:33;50.13;;;11.95;;
69008;SDS011;56065;52.472;13.380;2022-12-18T02:51:08;45.53;;;12.10;;
69008;SDS011;56065;52.472;13.380;2022-12-18T03:04:12;39.15;;;11.43;;
69008;SDS011;56065;52.472;13.380;2022-12-18T03:06:43;46.07;;;12.60;;
69008;SDS011;56065;52.472;13.380;2022-12-18T03:09:14;44.40;;;13.90;;
69008;SDS011;56065;52.472;13.380;2022-12-18T03:11:44;45.00;;;12.65;;
69008;SDS011;56065;52.472;13.380;2022-12-18T03:14:33;42.63;;;11.98;;
69008;SDS011;56065;52.472;13.380;2022-12-18T03:17:03;44.17;;;12.63;;
69008;SDS011;56065;52.472;13.380;2022-12-18T03:19:32;43.53;;;12.43;;
69008;SDS011;56065;52.472;13.380;2022-12-18T03:22:00;51.22;;;13.25;;
69008;SDS011;56065;52.472;13.380;2022-12-18T03:24:29;49.78;;;13.55;;
69008;SDS011;56065;52.472;13.380;2022-12-18T03:26:59;46.50;;;13.70;;
69008;SDS011;56065;52.472;13.380;2022-12-18T03:29:31;49.05;;;12.77;;
69008;SDS011;56065;52.472;13.380;2022-12-18T03:34:59;48.15;;;12.80;;
69008;SDS011;56065;52.472;13.380;2022-12-18T03:37:28;60.03;;;17.30;;
69008;SDS011;56065;52.472;13.380;2022-12-18T03:39:56;61.63;;;16.30;;
69008;SDS011;56065;52.472;13.380;2022-12-18T03:42:26;61.83;;;17.53;;
69008;SDS011;56065;52.472;13.380;2022-12-18T03:44:58;60.03;;;16.38;;
69008;SDS011;56065;52.472;13.380;2022-12-18T03:50:16;55.97;;;14.23;;
69008;SDS011;56065;52.472;13.380;2022-12-18T03:52:49;58.08;;;16.48;;
69008;SDS011;56065;52.472;13.380;2022-12-18T03:55:15;61.38;;;17.55;;
69008;SDS011;56065;52.472;13.380;2022-12-18T03:57:42;66.32;;;17.85;;
69008;SDS011;56065;52.472;13.380;2022-12-18T04:00:13;64.72;;;18.40;;
69008;SDS011;56065;52.472;13.380;2022-12-18T04:02:44;63.17;;;17.27;;
69008;SDS011;56065;52.472;13.380;2022-12-18T04:05:13;73.50;;;18.60;;
69008;SDS011;56065;52.472;13.380;2022-12-18T04:07:40;80.32;;;19.83;;
69008;SDS011;56065;52.472;13.380;2022-12-18T04:10:06;68.88;;;17.35;;
69008;SDS011;56065;52.472;13.380;2022-12-18T04:12:36;69.47;;;17.08;;
69008;SDS011;56065;52.472;13.380;2022-12-18T04:15:02;70.20;;;18.15;;
69008;SDS011;56065;52.472;13.380;2022-12-18T04:17:28;59.00;;;14.65;;
69008;SDS011;56065;52.472;13.380;2022-12-18T04:19:54;68.20;;;19.50;;
69008;SDS011;56065;52.472;13.380;2022-12-18T04:22:19;69.57;;;16.58;;
69008;SDS011;56065;52.472;13.380;2022-12-18T04:24:44;56.13;;;15.60;;
69008;SDS011;56065;52.472;13.380;2022-12-18T04:27:10;58.33;;;15.77;;
69008;SDS011;56065;52.472;13.380;2022-12-18T04:29:35;60.53;;;16.03;;
69008;SDS011;56065;52.472;13.380;2022-12-18T04:32:00;61.07;;;13.93;;
69008;SDS011;56065;52.472;13.380;2022-12-18T04:34:26;51.80;;;15.07;;
69008;SDS011;56065;52.472;13.380;2022-12-18T04:36:51;66.63;;;15.67;;
69008;SDS011;56065;52.472;13.380;2022-12-18T04:39:16;52.60;;;12.83;;
69008;SDS011;56065;52.472;13.380;2022-12-18T04:41:42;52.85;;;14.00;;
69008;SDS011;56065;52.472;13.380;2022-12-18T04:44:07;48.70;;;13.45;;
69008;SDS011;56065;52.472;13.380;2022-12-18T04:46:32;49.70;;;13.77;;
69008;SDS011;56065;52.472;13.380;2022-12-18T04:48:58;52.73;;;13.93;;
69008;SDS011;56065;52.472;13.380;2022-12-18T04:51:23;51.43;;;13.33;;
69008;SDS011;56065;52.472;13.380;2022-12-18T04:53:48;56.00;;;14.53;;
69008;SDS011;56065;52.472;13.380;2022-12-18T04:56:14;50.47;;;13.00;;
69008;SDS011;56065;52.472;13.380;2022-12-18T04:58:40;51.03;;;12.02;;
69008;SDS011;56065;52.472;13.380;2022-12-18T05:01:07;46.42;;;12.07;;
69008;SDS011;56065;52.472;13.380;2022-12-18T05:03:33;42.33;;;10.68;;
69008;SDS011;56065;52.472;13.380;2022-12-18T05:05:58;43.75;;;12.60;;
69008;SDS011;56065;52.472;13.380;2022-12-18T05:08:24;51.93;;;12.83;;
69008;SDS011;56065;52.472;13.380;2022-12-18T05:10:57;41.95;;;11.93;;
69008;SDS011;56065;52.472;13.380;2022-12-18T05:13:24;46.35;;;13.70;;
69008;SDS011;56065;52.472;13.380;2022-12-18T05:15:52;49.90;;;13.53;;
69008;SDS011;56065;52.472;13.380;2022-12-18T05:18:18;43.08;;;12.23;;
69008;SDS011;56065;52.472;13.380;2022-12-18T05:20:43;51.80;;;14.07;;
69008;SDS011;56065;52.472;13.380;2022-12-18T05:23:09;48.53;;;13.40;;
69008;SDS011;56065;52.472;13.380;2022-12-18T05:25:34;57.93;;;14.57;;
69008;SDS011;56065;52.472;13.380;2022-12-18T05:27:59;44.93;;;12.03;;
69008;SDS011;56065;52.472;13.380;2022-12-18T05:30:25;48.60;;;12.50;;
69008;SDS011;56065;52.472;13.380;2022-12-18T05:32:50;53.38;;;13.80;;
69008;SDS011;56065;52.472;13.380;2022-12-18T05:35:16;47.37;;;13.37;;
69008;SDS011;56065;52.472;13.380;2022-12-18T05:37:41;40.57;;;12.00;;
69008;SDS011;56065;52.472;13.380;2022-12-18T05:40:06;53.67;;;14.07;;
69008;SDS011;56065;52.472;13.380;2022-12-18T05:42:32;50.47;;;13.18;;
69008;SDS011;56065;52.472;13.380;2022-12-18T05:44:58;53.67;;;14.27;;
69008;SDS011;56065;52.472;13.380;2022-12-18T05:47:23;43.87;;;13.00;;
69008;SDS011;56065;52.472;13.380;2022-12-18T05:49:48;46.97;;;13.40;;
69008;SDS011;56065;52.472;13.380;2022-12-18T05:52:14;51.57;;;14.00;;
69008;SDS011;56065;52.472;13.380;2022-12-18T05:54:39;56.50;;;14.93;;
69008;SDS011;56065;52.472;13.380;2022-12-18T05:57:05;56.83;;;13.67;;
69008;SDS011;56065;52.472;13.380;2022-12-18T05:59:30;51.67;;;14.50;;
69008;SDS011;56065;52.472;13.380;2022-12-18T06:01:56;58.30;;;14.57;;
69008;SDS011;56065;52.472;13.380;2022-12-18T06:04:21;60.95;;;15.27;;
69008;SDS011;56065;52.472;13.380;2022-12-18T06:06:46;54.00;;;13.43;;
69008;SDS011;56065;52.472;13.380;2022-12-18T06:09:12;52.70;;;14.87;;
69008;SDS011;56065;52.472;13.380;2022-12-18T06:11:38;58.07;;;15.77;;
69008;SDS011;56065;52.472;13.380;2022-12-18T06:14:04;67.93;;;16.20;;
69008;SDS011;56065;52.472;13.380;2022-12-18T06:16:30;51.40;;;14.77;;
69008;SDS011;56065;52.472;13.380;2022-12-18T06:18:57;47.88;;;14.20;;
69008;SDS011;56065;52.472;13.380;2022-12-18T06:21:23;59.05;;;14.98;;
69008;SDS011;56065;52.472;13.380;2022-12-18T06:23:49;41.25;;;13.18;;
69008;SDS011;56065;52.472;13.380;2022-12-18T06:26:14;53.93;;;15.77;;
69008;SDS011;56065;52.472;13.380;2022-12-18T06:28:39;55.13;;;15.67;;
69008;SDS011;56065;52.472;13.380;2022-12-18T06:31:06;59.22;;;14.75;;
69008;SDS011;56065;52.472;13.380;2022-12-18T06:33:32;72.67;;;17.57;;
69008;SDS011;56065;52.472;13.380;2022-12-18T06:36:02;58.25;;;14.77;;
69008;SDS011;56065;52.472;13.380;2022-12-18T06:38:29;53.70;;;15.00;;
69008;SDS011;56065;52.472;13.380;2022-12-18T06:40:55;55.65;;;16.17;;
69008;SDS011;56065;52.472;13.380;2022-12-18T06:43:21;95.13;;;25.43;;
69008;SDS011;56065;52.472;13.380;2022-12-18T06:45:46;57.07;;;15.50;;
69008;SDS011;56065;52.472;13.380;2022-12-18T06:48:17;50.40;;;13.32;;
69008;SDS011;56065;52.472;13.380;2022-12-18T06:50:43;55.90;;;15.15;;
69008;SDS011;56065;52.472;13.380;2022-12-18T06:53:08;46.10;;;12.57;;
69008;SDS011;56065;52.472;13.380;2022-12-18T06:55:34;47.10;;;13.20;;
69008;SDS011;56065;52.472;13.380;2022-12-18T06:57:59;50.67;;;12.83;;
69008;SDS011;56065;52.472;13.380;2022-12-18T07:00:24;46.77;;;12.03;;
69008;SDS011;56065;52.472;13.380;2022-12-18T07:02:50;46.17;;;12.20;;
69008;SDS011;56065;52.472;13.380;2022-12-18T07:05:15;44.30;;;11.87;;
69008;SDS011;56065;52.472;13.380;2022-12-18T07:07:40;46.87;;;11.80;;
69008;SDS011;56065;52.472;13.380;2022-12-18T07:10:06;48.55;;;12.88;;
69008;SDS011;56065;52.472;13.380;2022-12-18T07:12:31;49.47;;;13.60;;
69008;SDS011;56065;52.472;13.380;2022-12-18T07:14:57;45.00;;;13.48;;
69008;SDS011;56065;52.472;13.380;2022-12-18T07:17:22;50.33;;;13.30;;
69008;SDS011;56065;52.472;13.380;2022-12-18T07:19:48;53.47;;;13.53;;
69008;SDS011;56065;52.472;13.380;2022-12-18T07:22:13;44.73;;;13.27;;
69008;SDS011;56065;52.472;13.380;2022-12-18T07:24:38;43.40;;;11.07;;
69008;SDS011;56065;52.472;13.380;2022-12-18T07:27:04;40.70;;;9.70;;
69008;SDS011;56065;52.472;13.380;2022-12-18T07:29:29;40.23;;;12.17;;
69008;SDS011;56065;52.472;13.380;2022-12-18T07:31:54;41.27;;;12.33;;
69008;SDS011;56065;52.472;13.380;2022-12-18T07:34:20;46.40;;;12.70;;
69008;SDS011;56065;52.472;13.380;2022-12-18T07:36:45;50.45;;;13.57;;
69008;SDS011;56065;52.472;13.380;2022-12-18T07:39:11;51.93;;;13.20;;
69008;SDS011;56065;52.472;13.380;2022-12-18T07:41:36;57.70;;;15.57;;
69008;SDS011;56065;52.472;13.380;2022-12-18T07:44:02;53.50;;;14.87;;
69008;SDS011;56065;52.472;13.380;2022-12-18T07:46:27;55.23;;;14.20;;
69008;SDS011;56065;52.472;13.380;2022-12-18T07:48:53;65.23;;;16.13;;
69008;SDS011;56065;52.472;13.380;2022-12-18T07:51:18;63.23;;;16.70;;
69008;SDS011;56065;52.472;13.380;2022-12-18T07:53:44;56.05;;;15.13;;
69008;SDS011;56065;52.472;13.380;2022-12-18T07:56:10;55.73;;;13.37;;
69008;SDS011;56065;52.472;13.380;2022-12-18T07:58:37;50.05;;;12.85;;
69008;SDS011;56065;52.472;13.380;2022-12-18T08:01:03;44.70;;;11.40;;
69008;SDS011;56065;52.472;13.380;2022-12-18T08:03:29;48.75;;;13.32;;
69008;SDS011;56065;52.472;13.380;2022-12-18T08:05:58;43.13;;;12.17;;
69008;SDS011;56065;52.472;13.380;2022-12-18T08:08:26;48.25;;;12.35;;
69008;SDS011;56065;52.472;13.380;2022-12-18T08:10:52;50.53;;;12.45;;
69008;SDS011;56065;52.472;13.380;2022-12-18T08:13:18;51.00;;;13.50;;
69008;SDS011;56065;52.472;13.380;2022-12-18T08:15:43;52.07;;;12.80;;
69008;SDS011;56065;52.472;13.380;2022-12-18T08:18:08;39.87;;;12.40;;
69008;SDS011;56065;52.472;13.380;2022-12-18T08:20:34;49.15;;;12.65;;
69008;SDS011;56065;52.472;13.380;2022-12-18T08:22:59;52.17;;;13.65;;
69008;SDS011;56065;52.472;13.380;2022-12-18T08:25:25;41.87;;;12.20;;
69008;SDS011;56065;52.472;13.380;2022-12-18T08:27:50;44.73;;;13.10;;
69008;SDS011;56065;52.472;13.380;2022-12-18T08:30:15;45.63;;;12.73;;
69008;SDS011;56065;52.472;13.380;2022-12-18T08:32:41;46.83;;;11.90;;
69008;SDS011;56065;52.472;13.380;2022-12-18T08:35:06;42.67;;;11.13;;
69008;SDS011;56065;52.472;13.380;2022-12-18T08:37:33;44.90;;;12.85;;
69008;SDS011;56065;52.472;13.380;2022-12-18T08:39:58;51.87;;;12.93;;
69008;SDS011;56065;52.472;13.380;2022-12-18T08:42:24;41.87;;;12.50;;
69008;SDS011;56065;52.472;13.380;2022-12-18T08:45:08;45.55;;;12.52;;
69008;SDS011;56065;52.472;13.380;2022-12-18T08:47:34;47.13;;;11.98;;
69008;SDS011;56065;52.472;13.380;2022-12-18T08:49:59;40.72;;;12.50;;
69008;SDS011;56065;52.472;13.380;2022-12-18T08:52:24;43.70;;;12.57;;
69008;SDS011;56065;52.472;13.380;2022-12-18T08:54:50;43.67;;;12.27;;
69008;SDS011;56065;52.472;13.380;2022-12-18T08:57:15;39.53;;;11.50;;
69008;SDS011;56065;52.472;13.380;2022-12-18T08:59:41;40.22;;;11.07;;
69008;SDS011;56065;52.472;13.380;2022-12-18T09:02:07;35.63;;;11.43;;
69008;SDS011;56065;52.472;13.380;2022-12-18T09:04:34;43.30;;;12.75;;
69008;SDS011;56065;52.472;13.380;2022-12-18T09:07:00;41.45;;;12.40;;
69008;SDS011;56065;52.472;13.380;2022-12-18T09:09:25;42.93;;;12.70;;
69008;SDS011;56065;52.472;13.380;2022-12-18T09:11:50;44.97;;;12.67;;
69008;SDS011;56065;52.472;13.380;2022-12-18T09:14:16;39.10;;;11.90;;
69008;SDS011;56065;52.472;13.380;2022-12-18T09:16:41;41.57;;;11.00;;
69008;SDS011;56065;52.472;13.380;2022-12-18T09:19:07;51.83;;;12.95;;
69008;SDS011;56065;52.472;13.380;2022-12-18T09:21:35;46.45;;;12.57;;
69008;SDS011;56065;52.472;13.380;2022-12-18T09:24:08;43.08;;;12.63;;
69008;SDS011;56065;52.472;13.380;2022-12-18T09:26:37;34.22;;;9.85;;
69008;SDS011;56065;52.472;13.380;2022-12-18T09:29:03;39.70;;;11.10;;
69008;SDS011;56065;52.472;13.380;2022-12-18T09:31:28;40.80;;;11.55;;
69008;SDS011;56065;52.472;13.380;2022-12-18T09:33:54;38.37;;;11.50;;
69008;SDS011;56065;52.472;13.380;2022-12-18T09:36:20;38.30;;;12.02;;
69008;SDS011;56065;52.472;13.380;2022-12-18T09:38:46;42.80;;;11.68;;
69008;SDS011;56065;52.472;13.380;2022-12-18T09:44:11;43.75;;;12.13;;
69008;SDS011;56065;52.472;13.380;2022-12-18T09:46:38;38.42;;;9.75;;
69008;SDS011;56065;52.472;13.380;2022-12-18T09:49:11;40.22;;;11.57;;
69008;SDS011;56065;52.472;13.380;2022-12-18T09:51:41;42.70;;;11.43;;
69008;SDS011;56065;52.472;13.380;2022-12-18T09:54:22;44.55;;;12.27;;
69008;SDS011;56065;52.472;13.380;2022-12-18T09:56:51;45.15;;;11.75;;
69008;SDS011;56065;52.472;13.380;2022-12-18T09:59:21;40.08;;;12.23;;
69008;SDS011;56065;52.472;13.380;2022-12-18T10:01:48;49.28;;;12.18;;
69008;SDS011;56065;52.472;13.380;2022-12-18T10:04:13;44.17;;;11.70;;
69008;SDS011;56065;52.472;13.380;2022-12-18T10:06:42;45.83;;;12.23;;
69008;SDS011;56065;52.472;13.380;2022-12-18T10:09:43;45.10;;;11.88;;
69008;SDS011;56065;52.472;13.380;2022-12-18T10:12:31;43.20;;;11.53;;
69008;SDS011;56065;52.472;13.380;2022-12-18T10:15:10;51.28;;;13.52;;
69008;SDS011;56065;52.472;13.380;2022-12-18T10:23:18;43.75;;;11.32;;
69008;SDS011;56065;52.472;13.380;2022-12-18T10:28:30;48.72;;;14.38;;
69008;SDS011;56065;52.472;13.380;2022-12-18T10:30:56;50.92;;;13.93;;
69008;SDS011;56065;52.472;13.380;2022-12-18T10:33:23;41.20;;;12.43;;
69008;SDS011;56065;52.472;13.380;2022-12-18T10:35:52;49.77;;;14.57;;
69008;SDS011;56065;52.472;13.380;2022-12-18T10:43:27;46.10;;;12.55;;
69008;SDS011;56065;52.472;13.380;2022-12-18T10:46:00;48.85;;;12.88;;
69008;SDS011;56065;52.472;13.380;2022-12-18T10:48:28;44.80;;;13.02;;
69008;SDS011;56065;52.472;13.380;2022-12-18T10:50:55;48.05;;;13.00;;
69008;SDS011;56065;52.472;13.380;2022-12-18T10:53:23;42.50;;;12.47;;
69008;SDS011;56065;52.472;13.380;2022-12-18T10:55:50;43.15;;;12.07;;
69008;SDS011;56065;52.472;13.380;2022-12-18T11:03:30;44.60;;;12.05;;
69008;SDS011;56065;52.472;13.380;2022-12-18T11:06:22;45.07;;;13.57;;
69008;SDS011;56065;52.472;13.380;2022-12-18T11:11:28;71.70;;;18.77;;
69008;SDS011;56065;52.472;13.380;2022-12-18T11:16:32;47.30;;;12.48;;
69008;SDS011;56065;52.472;13.380;2022-12-18T11:19:51;37.97;;;11.93;;
69008;SDS011;56065;52.472;13.380;2022-12-18T11:21:53;41.47;;;10.93;;
69008;SDS011;56065;52.472;13.380;2022-12-18T11:24:20;37.08;;;11.18;;
69008;SDS011;56065;52.472;13.380;2022-12-18T11:26:57;41.35;;;11.68;;
69008;SDS011;56065;52.472;13.380;2022-12-18T11:29:31;37.65;;;11.13;;
69008;SDS011;56065;52.472;13.380;2022-12-18T11:34:39;33.90;;;10.85;;
69008;SDS011;56065;52.472;13.380;2022-12-18T11:37:07;41.33;;;13.05;;
69008;SDS011;56065;52.472;13.380;2022-12-18T11:39:36;43.15;;;12.20;;
69008;SDS011;56065;52.472;13.380;2022-12-18T11:42:09;29.90;;;9.00;;
69008;SDS011;56065;52.472;13.380;2022-12-18T11:44:40;39.47;;;11.30;;
69008;SDS011;56065;52.472;13.380;2022-12-18T11:47:10;42.10;;;13.73;;
69008;SDS011;56065;52.472;13.380;2022-12-18T11:49:55;42.63;;;12.15;;
69008;SDS011;56065;52.472;13.380;2022-12-18T11:52:26;38.38;;;10.52;;
69008;SDS011;56065;52.472;13.380;2022-12-18T11:54:59;42.75;;;12.70;;
69008;SDS011;56065;52.472;13.380;2022-12-18T12:00:13;48.95;;;12.27;;
69008;SDS011;56065;52.472;13.380;2022-12-18T12:07:52;44.47;;;12.50;;
69008;SDS011;56065;52.472;13.380;2022-12-18T12:13:13;40.97;;;11.68;;
69008;SDS011;56065;52.472;13.380;2022-12-18T12:15:59;34.08;;;10.65;;
69008;SDS011;56065;52.472;13.380;2022-12-18T12:21:34;38.05;;;10.73;;
69008;SDS011;56065;52.472;13.380;2022-12-18T12:42:20;34.70;;;10.85;;
69008;SDS011;56065;52.472;13.380;2022-12-18T12:45:15;30.95;;;10.20;;
69008;SDS011;56065;52.472;13.380;2022-12-18T12:47:44;33.75;;;11.05;;
69008;SDS011;56065;52.472;13.380;2022-12-18T12:50:13;36.70;;;11.18;;
69008;SDS011;56065;52.472;13.380;2022-12-18T12:52:51;33.33;;;10.80;;
69008;SDS011;56065;52.472;13.380;2022-12-18T12:55:28;37.78;;;11.73;;
69008;SDS011;56065;52.472;13.380;2022-12-18T12:57:57;39.50;;;12.45;;
69008;SDS011;56065;52.472;13.380;2022-12-18T13:06:32;38.78;;;12.18;;
69008;SDS011;56065;52.472;13.380;2022-12-18T13:09:04;31.17;;;10.13;;
69008;SDS011;56065;52.472;13.380;2022-12-18T13:11:37;37.27;;;10.57;;
69008;SDS011;56065;52.472;13.380;2022-12-18T13:14:27;32.03;;;9.88;;
69008;SDS011;56065;52.472;13.380;2022-12-18T13:19:49;32.35;;;10.70;;
69008;SDS011;56065;52.472;13.380;2022-12-18T13:22:23;33.47;;;11.33;;
69008;SDS011;56065;52.472;13.380;2022-12-18T13:24:53;35.33;;;11.40;;
69008;SDS011;56065;52.472;13.380;2022-12-18T13:27:58;32.65;;;10.18;;
69008;SDS011;56065;52.472;13.380;2022-12-18T13:41:14;37.10;;;12.43;;
69008;SDS011;56065;52.472;13.380;2022-12-18T13:43:55;38.40;;;13.50;;
69008;SDS011;56065;52.472;13.380;2022-12-18T13:51:38;29.08;;;10.10;;
69008;SDS011;56065;52.472;13.380;2022-12-18T13:54:19;32.07;;;11.57;;
69008;SDS011;56065;52.472;13.380;2022-12-18T13:56:51;33.00;;;11.32;;
69008;SDS011;56065;52.472;13.380;2022-12-18T13:59:20;34.35;;;11.73;;
69008;SDS011;56065;52.472;13.380;2022-12-18T14:01:54;35.08;;;11.63;;
69008;SDS011;56065;52.472;13.380;2022-12-18T14:04:22;45.75;;;14.75;;
69008;SDS011;56065;52.472;13.380;2022-12-18T14:06:49;44.30;;;13.73;;
69008;SDS011;56065;52.472;13.380;2022-12-18T14:09:24;45.53;;;14.93;;
69008;SDS011;56065;52.472;13.380;2022-12-18T14:11:51;47.40;;;15.13;;
69008;SDS011;56065;52.472;13.380;2022-12-18T14:14:39;45.58;;;14.95;;
69008;SDS011;56065;52.472;13.380;2022-12-18T14:17:08;45.10;;;13.90;;
69008;SDS011;56065;52.472;13.380;2022-12-18T14:19:35;43.63;;;13.80;;
69008;SDS011;56065;52.472;13.380;2022-12-18T14:22:01;48.42;;;15.43;;
69008;SDS011;56065;52.472;13.380;2022-12-18T14:24:26;44.80;;;14.37;;
69008;SDS011;56065;52.472;13.380;2022-12-18T14:26:52;40.72;;;14.10;;
69008;SDS011;56065;52.472;13.380;2022-12-18T14:29:25;45.47;;;14.43;;
69008;SDS011;56065;52.472;13.380;2022-12-18T14:32:05;52.17;;;17.27;;
69008;SDS011;56065;52.472;13.380;2022-12-18T14:34:47;42.90;;;14.65;;
69008;SDS011;56065;52.472;13.380;2022-12-18T14:37:15;36.08;;;12.52;;
69008;SDS011;56065;52.472;13.380;2022-12-18T14:39:53;42.03;;;14.43;;
69008;SDS011;56065;52.472;13.380;2022-12-18T14:42:19;40.95;;;14.50;;
69008;SDS011;56065;52.472;13.380;2022-12-18T14:44:45;40.50;;;14.73;;
69008;SDS011;56065;52.472;13.380;2022-12-18T14:47:13;44.92;;;14.98;;
69008;SDS011;56065;52.472;13.380;2022-12-18T14:49:40;42.22;;;15.55;;
69008;SDS011;56065;52.472;13.380;2022-12-18T14:52:15;45.63;;;15.85;;
69008;SDS011;56065;52.472;13.380;2022-12-18T14:54:47;37.75;;;13.48;;
69008;SDS011;56065;52.472;13.380;2022-12-18T14:57:35;34.50;;;13.83;;
69008;SDS011;56065;52.472;13.380;2022-12-18T15:00:03;31.92;;;12.32;;
69008;SDS011;56065;52.472;13.380;2022-12-18T15:02:40;43.15;;;15.20;;
69008;SDS011;56065;52.472;13.380;2022-12-18T15:08:00;29.20;;;10.25;;
69008;SDS011;56065;52.472;13.380;2022-12-18T15:18:00;31.73;;;11.88;;
69008;SDS011;56065;52.472;13.380;2022-12-18T15:20:39;32.97;;;12.15;;
69008;SDS011;56065;52.472;13.380;2022-12-18T15:23:12;30.98;;;11.10;;
69008;SDS011;56065;52.472;13.380;2022-12-18T15:25:40;30.30;;;11.60;;
69008;SDS011;56065;52.472;13.380;2022-12-18T15:31:00;27.25;;;11.35;;
69008;SDS011;56065;52.472;13.380;2022-12-18T15:33:30;24.63;;;9.77;;
69008;SDS011;56065;52.472;13.380;2022-12-18T15:36:01;29.77;;;9.95;;
69008;SDS011;56065;52.472;13.380;2022-12-18T15:38:29;21.45;;;7.38;;
69008;SDS011;56065;52.472;13.380;2022-12-18T15:40:55;25.75;;;9.80;;
69008;SDS011;56065;52.472;13.380;2022-12-18T15:43:22;27.67;;;9.75;;
69008;SDS011;56065;52.472;13.380;2022-12-18T15:48:25;35.50;;;12.37;;
69008;SDS011;56065;52.472;13.380;2022-12-18T15:50:51;29.80;;;11.13;;
69008;SDS011;56065;52.472;13.380;2022-12-18T15:53:18;31.88;;;12.02;;
69008;SDS011;56065;52.472;13.380;2022-12-18T15:55:44;30.58;;;11.27;;
69008;SDS011;56065;52.472;13.380;2022-12-18T15:58:28;26.25;;;10.38;;
69008;SDS011;56065;52.472;13.380;2022-12-18T16:00:53;30.73;;;11.67;;
69008;SDS011;56065;52.472;13.380;2022-12-18T16:03:21;29.23;;;11.05;;
69008;SDS011;56065;52.472;13.380;2022-12-18T16:05:46;24.48;;;9.35;;
69008;SDS011;56065;52.472;13.380;2022-12-18T16:08:12;26.23;;;9.77;;
69008;SDS011;56065;52.472;13.380;2022-12-18T16:10:37;28.93;;;10.73;;
69008;SDS011;56065;52.472;13.380;2022-12-18T16:13:03;27.00;;;10.23;;
69008;SDS011;56065;52.472;13.380;2022-12-18T16:15:28;30.45;;;10.95;;
69008;SDS011;56065;52.472;13.380;2022-12-18T16:17:53;26.88;;;10.55;;
69008;SDS011;56065;52.472;13.380;2022-12-18T16:20:20;30.33;;;11.33;;
69008;SDS011;56065;52.472;13.380;2022-12-18T16:22:46;34.33;;;11.95;;